Flight Track Log - Related Links

Times and Time Zones

All times are in EDT time to prevent confusion due to time zone crossing. See the FLG3861 flight status page for this flight to view local times or setup timezone preferences in your user account.

Time Position Orientation Groundspeed Altitude Reporting Facility
EDT Latitude Longitude Course Direction KTS MPH feet Rate Location/Type
Wed 09:51:16 PM 42.2317 -83.3342 26° Northeast 148 170 1,400  Level Cleveland Center
Wed 09:51:59 PM 42.2603 -83.3156 26° Northeast 188 216 2,700 1,906 Climbing Cleveland Center
Wed 09:52:41 PM 42.2833 -83.2986 29° Northeast 186 214 4,100 1,981 Climbing Cleveland Center
Wed 09:53:42 PM 42.3128 -83.2033 67° East 256 295 6,100 2,146 Climbing Cleveland Center
Wed 09:54:44 PM 42.3172 -83.0975 87° East 275 316 8,500 2,341 Climbing Cleveland Center
Wed 09:55:45 PM 42.3269 -82.9786 84° East 310 357 10,900 1,967 Climbing Cleveland Center
Wed 09:56:46 PM 42.3381 -82.8469 83° East 350 403 12,500 1,561 Climbing Cleveland Center
Wed 09:57:48 PM 42.3500 -82.6997 84° East 387 445 14,100 1,561 Climbing Cleveland Center
Wed 09:58:49 PM 42.3625 -82.5464 84° East 409 471 15,700 1,574 Climbing Cleveland Center
Wed 09:59:50 PM 42.3675 -82.3872 88° East 420 483 17,300 1,463 Climbing Cleveland Center
Wed 10:00:52 PM 42.3592 -82.2253 94° East 429 494 18,700 1,415 Climbing Cleveland Center
Wed 10:01:53 PM 42.3519 -82.0347 93° East 436 502 20,200 1,328 Climbing Cleveland Center
Wed 10:02:54 PM 42.3450 -81.8606 93° East 449 517 21,400 1,220 Climbing Cleveland Center
Wed 10:03:56 PM 42.3367 -81.6839 94° East 459 528 22,700 1,220 Climbing Cleveland Center
Wed 10:04:57 PM 42.3283 -81.5069 94° East 464 534 23,900 1,131 Climbing Cleveland Center
Wed 10:05:58 PM 42.3200 -81.3281 94° East 466 536 25,000 537 Climbing Cleveland Center
Wed 10:07:00 PM 42.3100 -81.1433 94° East 480 552 25,000  Level Cleveland Center
Wed 10:08:01 PM 42.3008 -80.9489 94° East 504 580 25,000  Level Cleveland Center
Wed 10:09:03 PM 42.2894 -80.7503 94° East 519 597 25,000  Level Cleveland Center
Wed 10:10:04 PM 42.2794 -80.5494 94° East 528 608 25,000  Level Cleveland Center
Wed 10:11:05 PM 42.2672 -80.3428 95° East 541 623 25,000  Level Cleveland Center
Wed 10:12:07 PM 42.2556 -80.1394 94° East 540 621 25,000  Level Cleveland Center
Wed 10:13:08 PM 42.2425 -79.9367 95° East 540 621 25,000  Level Cleveland Center
Wed 10:14:09 PM 42.2294 -79.7358 95° East 540 621 25,000  Level Cleveland Center
Wed 10:15:11 PM 42.2139 -79.4917 95° East 546 628 25,000  Level Cleveland Center
Wed 10:16:12 PM 42.2000 -79.2889 95° East 545 627 25,000  Level Cleveland Center
Wed 10:17:13 PM 42.1894 -79.0864 94° East 546 628 25,000  Level Cleveland Center
Wed 10:18:15 PM 42.1939 -78.8686 88° East 543 625 25,000  Level Cleveland Center
Wed 10:19:16 PM 42.1986 -78.6658 88° East 543 625 25,000 -293 Level Cleveland Center
Wed 10:20:18 PM 42.2011 -78.4628 89° East 544 626 24,400 -927 Descending Cleveland Center
Wed 10:21:19 PM 42.2028 -78.2617 89° East 543 625 23,100 -1,279 Descending Cleveland Center
Wed 10:22:20 PM 42.2053 -78.0689 89° East 523 602 21,800 -1,268 Descending Cleveland Center
Wed 10:23:22 PM 42.2064 -77.8772 89° East 520 598 20,500 -1,268 Descending Cleveland Center
Wed 10:24:23 PM 42.2089 -77.6897 89° East 513 590 19,200 -1,328 Descending Cleveland Center
Wed 10:25:24 PM 42.2106 -77.4736 89° East 494 568 17,800 -1,073 Descending Cleveland Center
Wed 10:26:26 PM 42.2111 -77.2989 90° East 475 547 17,000 -390 Descending Cleveland Center
Wed 10:27:27 PM 42.2122 -77.1275 89° East 468 539 17,000 -689 Level Cleveland Center
Wed 10:28:28 PM 42.2122 -76.9564 90° East 462 532 15,600 -1,854 Descending Cleveland Center
Wed 10:29:30 PM 42.2122 -76.7975 90° East 432 497 13,200 -2,293 Descending Cleveland Center
Wed 10:30:31 PM 42.2111 -76.6550 91° East 387 445 10,900 -2,016 Descending Cleveland Center
Wed 10:31:32 PM 42.2114 -76.5364 90° East 321 369 9,100 -927 Descending Cleveland Center
Wed 10:32:34 PM 42.2111 -76.4292 90° East 291 335 9,000 -537 Descending Cleveland Center
Wed 10:33:35 PM 42.2103 -76.3208 91° East 284 327 8,000 -1,426 Descending Cleveland Center
Wed 10:34:36 PM 42.1983 -76.1931 97° East 289 333 6,100 -1,756 Descending Cleveland Center
Wed 10:35:38 PM 42.1664 -76.1050 116° Southeast 267 307 4,400 -1,024 Descending Cleveland Center
Wed 10:36:39 PM 42.1189 -76.0275 130° Southeast 269 310 4,000 -333 Descending Cleveland Center
Wed 10:37:26 PM 42.1003 -75.9892 123° Southeast 238 274 3,800 -336 Descending New York Center
Wed 10:38:26 PM 42.1233 -75.9378 59° Northeast 154 177 3,400 -550 Descending New York Center
Wed 10:39:26 PM 42.1544 -75.9375 360° North 112 129 2,700 -650 Descending New York Center
Wed 10:40:26 PM 42.1828 -75.9592 330° Northwest 81 93 2,100 -600 Descending New York Center

Login

Don't have an account? Register now (free) for customized features, flight alerts, and more!